Weather at Tyagarah Airport

Public forecast

Using degrees Celsius for public forecast. Weather courtesy of forecast.io.

Closest aviation weather report (METAR) to Tyagarah Airport

Closest report is Ballina Byron Gateway Airport, 14.4 nm (26.6 km) S. Retrieved 2021/01/16 01:00 UTC (47 minutes ago):

YBNA 160100Z AUTO 19012KT 9999 // NCD 27/21 Q1007

Closest aviation forecast (TAF) to Tyagarah Airport

Closest forecast is Gold Coast Airport, 25.9 nm (48.1 km) N. Retrieved 2021-01-16 03:00 UTC (0 seconds ago):

TAF YBCG 160208Z 1603/1700 14015KT 9999 -SHRA SCT020 BKN040 FM161000 16010KT 9999 NSW FEW020 BKN035 FM162300 10008KT 9999 SCT035 TEMPO 1603/1608 VRB25G45KT 1000 TSRAGR BKN010 SCT040CB